Pagrindinis puslapis
METAR-TAF:

METAR-TAF

Oro uostai :

Payerne, Šveicarija

platuma: 46-49N, ilguma: 006-57E, Aukštis: 490 m

Dabartinis oras

Ataskaita buvo paskelbta 32 minutes, ne 18:20 UTC
Vėjas 11 kt iš Šiaurės Rytų
Temperatūra 15°C
Drėgmė 48%
Slėgis 1023 hPa
Matomumas 10 km arba daugiau

METAR: LSMP 191820Z AUTO 05011KT 9999NDV NCD 15/04 Q1023 RMK

Laikas: 20:52 (18:52 UTC)


TAF: trūkstamas

Orai ataskaitas ir orų prognozės (METAR, TAF).

turimą stotys yra geltonos ir raudonos taškus žemėlapyje.

Perkelti pele per norėdami pamatyti stoties vardą.

Tada spustelėkite, norėdami matyti oro stebėjimo ir prognozės.

Norėdami pakeisti žemėlapį: spustelėkite ant žalios mygtukų su juodo kryžiaus žemyn,; žalią mygtuką su brūkšneliu, jei norite nutolinti; arba žalių rodyklių gretimoms žemėlapius.


METAR-TAF: